createdAt,value
2022-12-02T00:01:54.923Z,81.30
2022-12-02T00:04:24.537Z,82.90
2022-12-02T00:06:53.524Z,81.20
2022-12-02T00:09:43.045Z,80.97
2022-12-02T00:12:23.428Z,76.13
2022-12-02T00:14:59.732Z,89.97
2022-12-02T00:17:26.848Z,82.15
2022-12-02T00:19:53.706Z,78.00
2022-12-02T00:22:20.510Z,82.95
2022-12-02T00:24:47.213Z,85.47
2022-12-02T00:27:13.866Z,80.35
2022-12-02T00:29:40.561Z,83.82
2022-12-02T00:32:07.440Z,85.35
2022-12-02T00:34:34.156Z,87.35
2022-12-02T00:37:00.791Z,84.57
2022-12-02T00:39:27.427Z,81.13
2022-12-02T00:41:54.040Z,75.05
2022-12-02T00:44:39.299Z,89.60
2022-12-02T00:47:05.939Z,78.82
2022-12-02T00:49:32.574Z,84.55
2022-12-02T00:51:59.177Z,80.38
2022-12-02T00:54:25.765Z,82.72
2022-12-02T00:56:52.305Z,79.45
2022-12-02T00:59:18.963Z,79.75
2022-12-02T01:01:45.638Z,86.72
2022-12-02T01:04:12.302Z,85.70
2022-12-02T01:06:38.956Z,78.97
2022-12-02T01:09:05.636Z,84.10
2022-12-02T01:11:32.354Z,78.80
2022-12-02T01:13:58.985Z,85.13
2022-12-02T01:16:25.617Z,84.35
2022-12-02T01:18:52.448Z,87.00
2022-12-02T01:21:19.073Z,80.72
2022-12-02T01:23:45.629Z,84.63
2022-12-02T01:26:12.218Z,72.78
2022-12-02T01:28:38.818Z,78.07
2022-12-02T01:31:05.541Z,76.97
2022-12-02T01:33:32.225Z,76.70
2022-12-02T01:35:58.838Z,78.82
2022-12-02T01:38:25.474Z,79.63
2022-12-02T01:40:52.509Z,76.85
2022-12-02T01:43:19.145Z,80.22
2022-12-02T01:45:45.946Z,79.38
2022-12-02T01:48:12.729Z,75.63
2022-12-02T01:50:39.382Z,79.72
2022-12-02T01:53:06.211Z,79.13
2022-12-02T01:55:32.936Z,76.28
2022-12-02T01:57:59.770Z,74.55
2022-12-02T02:00:27.962Z,75.28
2022-12-02T02:02:55.027Z,79.07
2022-12-02T02:05:27.956Z,72.72
2022-12-02T02:07:57.737Z,76.05
2022-12-02T02:10:27.014Z,76.07
2022-12-02T02:12:53.735Z,77.03
2022-12-02T02:15:21.845Z,74.03
2022-12-02T02:17:49.061Z,73.88
2022-12-02T02:20:21.727Z,62.72
2022-12-02T02:23:06.569Z,73.40
2022-12-02T02:25:37.801Z,76.50
2022-12-02T02:28:04.531Z,73.50
2022-12-02T02:30:35.669Z,73.72
2022-12-02T02:33:05.428Z,71.13
2022-12-02T02:35:34.362Z,74.45
2022-12-02T02:38:01.724Z,75.07
2022-12-02T02:40:29.685Z,73.75
2022-12-02T02:43:00.176Z,77.32
2022-12-02T02:45:30.913Z,56.95
2022-12-02T02:47:57.919Z,67.20
2022-12-02T02:50:25.711Z,79.03
2022-12-02T02:52:52.702Z,72.28
2022-12-02T02:55:21.898Z,74.22
2022-12-02T02:57:48.732Z,67.90
2022-12-02T03:00:16.766Z,75.78
2022-12-02T03:02:45.966Z,71.55
2022-12-02T03:05:13.394Z,65.90
2022-12-02T03:07:40.167Z,64.32
2022-12-02T03:10:07.918Z,65.97
2022-12-02T03:12:34.691Z,75.65
2022-12-02T03:15:03.155Z,66.43
2022-12-02T03:17:29.817Z,71.18
2022-12-02T03:19:56.671Z,69.18
2022-12-02T03:22:23.664Z,59.60
2022-12-02T03:24:51.102Z,67.78
2022-12-02T03:27:18.259Z,67.55
2022-12-02T03:29:45.530Z,63.97
2022-12-02T03:32:13.049Z,68.35
2022-12-02T03:34:41.613Z,63.30
2022-12-02T03:37:09.378Z,68.13
2022-12-02T03:39:36.760Z,51.00
2022-12-02T03:42:04.599Z,70.45
2022-12-02T03:44:31.352Z,62.45
2022-12-02T03:46:58.190Z,71.55
2022-12-02T03:49:25.291Z,69.35
2022-12-02T03:51:52.091Z,62.10
2022-12-02T03:54:18.936Z,67.63
2022-12-02T03:56:45.699Z,75.00
2022-12-02T03:59:19.964Z,66.75
2022-12-02T04:01:46.605Z,62.65
2022-12-02T04:04:13.299Z,69.20
2022-12-02T04:06:39.851Z,69.80
2022-12-02T04:09:06.464Z,67.15
2022-12-02T04:11:33.080Z,70.95
2022-12-02T04:13:59.775Z,68.43
2022-12-02T04:16:26.472Z,73.13
2022-12-02T04:18:53.143Z,65.88
2022-12-02T04:21:19.771Z,74.95
2022-12-02T04:23:46.318Z,60.75
2022-12-02T04:26:12.900Z,71.75
2022-12-02T04:28:39.516Z,59.38
2022-12-02T04:31:06.280Z,66.25
2022-12-02T04:33:33.038Z,65.93
2022-12-02T04:35:59.606Z,65.90
2022-12-02T04:38:26.304Z,65.38
2022-12-02T04:40:52.923Z,62.60
2022-12-02T04:43:19.626Z,69.82
2022-12-02T04:45:46.329Z,77.05
2022-12-02T04:48:12.910Z,77.47
2022-12-02T04:50:39.573Z,65.43
2022-12-02T04:53:06.137Z,61.25
2022-12-02T04:55:32.683Z,59.45
2022-12-02T04:57:59.388Z,63.50
2022-12-02T05:00:25.963Z,60.80
2022-12-02T05:02:52.791Z,63.15
2022-12-02T05:05:19.477Z,54.45
2022-12-02T05:07:46.106Z,61.63
2022-12-02T05:10:12.825Z,55.38
2022-12-02T05:12:39.402Z,58.85
2022-12-02T05:15:06.609Z,58.65
2022-12-02T05:17:34.428Z,55.30
2022-12-02T05:20:04.103Z,64.35
2022-12-02T05:22:30.658Z,53.88
2022-12-02T05:24:57.255Z,58.65
2022-12-02T05:27:23.867Z,64.03
2022-12-02T05:29:50.505Z,57.38
2022-12-02T05:32:17.119Z,61.63
2022-12-02T05:34:43.794Z,62.72
2022-12-02T05:37:10.522Z,60.83
2022-12-02T05:39:37.085Z,56.75
2022-12-02T05:42:08.062Z,63.25
2022-12-02T05:44:39.700Z,66.63
2022-12-02T05:49:37.779Z,54.65
2022-12-02T05:52:24.348Z,54.10
2022-12-02T05:54:57.985Z,61.17
2022-12-02T05:57:28.320Z,60.58
2022-12-02T06:00:10.590Z,59.78
2022-12-02T06:02:50.428Z,56.72
2022-12-02T06:05:23.288Z,52.13
2022-12-02T06:07:53.615Z,54.88
2022-12-02T06:10:29.867Z,51.67
2022-12-02T06:13:04.582Z,56.95
2022-12-02T06:15:36.237Z,45.67
2022-12-02T06:18:10.402Z,49.55
2022-12-02T06:20:37.065Z,41.15
2022-12-02T06:23:03.919Z,46.70
2022-12-02T06:25:32.294Z,53.42
2022-12-02T06:28:16.712Z,45.17
2022-12-02T06:30:43.279Z,56.00
2022-12-02T06:33:24.548Z,52.15
2022-12-02T06:35:51.694Z,49.10
2022-12-02T06:38:29.306Z,43.47
2022-12-02T06:40:56.070Z,41.70
2022-12-02T06:43:32.388Z,49.28
2022-12-02T06:45:59.078Z,46.53
2022-12-02T06:48:34.159Z,44.95
2022-12-02T06:51:15.582Z,37.38
2022-12-02T06:53:42.581Z,38.00
2022-12-02T06:56:21.194Z,38.83
2022-12-02T06:58:53.456Z,44.00
2022-12-02T07:01:22.334Z,40.00
2022-12-02T07:04:05.076Z,41.10
2022-12-02T07:06:33.630Z,39.58
2022-12-02T07:09:32.883Z,34.13
2022-12-02T07:11:59.709Z,39.78
2022-12-02T07:14:33.631Z,44.53
2022-12-02T07:17:13.526Z,40.72
2022-12-02T07:19:46.686Z,35.55
2022-12-02T07:22:19.715Z,39.85
2022-12-02T07:25:02.014Z,36.90
2022-12-02T07:27:31.924Z,42.10
2022-12-02T07:30:00.269Z,36.00
2022-12-02T07:32:27.198Z,35.85
2022-12-02T07:34:54.175Z,34.30
2022-12-02T07:37:21.206Z,35.78
2022-12-02T07:39:47.842Z,37.30
2022-12-02T07:42:14.769Z,36.50
2022-12-02T07:44:41.411Z,36.78
2022-12-02T07:47:08.221Z,37.72
2022-12-02T07:49:34.896Z,34.65
2022-12-02T07:52:02.335Z,32.08
2022-12-02T07:54:28.973Z,29.23
2022-12-02T07:56:55.603Z,35.33
2022-12-02T07:59:22.221Z,33.47
2022-12-02T08:01:48.841Z,34.10
2022-12-02T08:04:15.717Z,35.65
2022-12-02T08:06:42.478Z,35.28
2022-12-02T08:09:10.115Z,33.03
2022-12-02T08:11:37.096Z,36.55
2022-12-02T08:14:03.955Z,34.58
2022-12-02T08:16:30.637Z,31.02
2022-12-02T08:18:57.277Z,29.70
2022-12-02T08:21:23.947Z,33.20
2022-12-02T08:23:50.555Z,36.88
2022-12-02T08:26:17.210Z,32.53
2022-12-02T08:28:43.791Z,33.22
2022-12-02T08:31:10.665Z,39.72
2022-12-02T08:33:37.242Z,35.30
2022-12-02T08:36:04.274Z,27.05
2022-12-02T08:38:30.926Z,33.70
2022-12-02T08:40:57.661Z,32.85
2022-12-02T08:43:24.371Z,33.72
2022-12-02T08:45:51.101Z,31.55
2022-12-02T08:48:18.051Z,31.40
2022-12-02T08:50:44.702Z,37.22
2022-12-02T08:53:11.276Z,35.85
2022-12-02T08:55:37.898Z,30.55
2022-12-02T08:58:04.526Z,32.53
2022-12-02T09:00:37.166Z,35.05
2022-12-02T09:03:06.419Z,34.85
2022-12-02T09:05:33.394Z,31.95
2022-12-02T09:08:00.335Z,32.92
2022-12-02T09:10:27.282Z,25.67
2022-12-02T09:12:53.894Z,33.75
2022-12-02T09:15:21.523Z,31.25
2022-12-02T09:17:49.535Z,34.28
2022-12-02T09:20:17.187Z,30.75
2022-12-02T09:22:45.550Z,35.15
2022-12-02T09:25:13.325Z,35.85
2022-12-02T09:27:39.936Z,30.77
2022-12-02T09:30:07.747Z,37.15
2022-12-02T09:32:35.234Z,35.35
2022-12-02T09:35:02.526Z,32.58
2022-12-02T09:37:29.318Z,33.95
2022-12-02T09:39:56.063Z,38.15
2022-12-02T09:42:23.155Z,33.75
2022-12-02T09:44:50.732Z,33.22
2022-12-02T09:47:18.754Z,33.38
2022-12-02T09:49:47.000Z,29.55
2022-12-02T09:52:26.153Z,40.20
2022-12-02T09:54:55.537Z,35.72
2022-12-02T09:57:31.271Z,31.85
2022-12-02T10:00:02.038Z,31.65
2022-12-02T10:02:39.320Z,35.63
2022-12-02T10:05:16.043Z,24.92
2022-12-02T10:07:43.691Z,27.92
2022-12-02T10:10:19.575Z,29.17
2022-12-02T10:12:47.093Z,35.95
2022-12-02T10:15:16.478Z,28.02
2022-12-02T10:17:45.417Z,36.78
2022-12-02T10:20:21.369Z,40.00
2022-12-02T10:23:12.986Z,26.05
2022-12-02T10:25:45.823Z,35.92
2022-12-02T10:28:22.585Z,33.08
2022-12-02T10:30:57.082Z,32.80
2022-12-02T10:33:27.097Z,32.25
2022-12-02T10:35:55.032Z,38.38
2022-12-02T10:38:33.536Z,40.47
2022-12-02T10:41:15.253Z,33.05
2022-12-02T10:43:52.619Z,35.80
2022-12-02T10:46:20.403Z,33.67
2022-12-02T10:48:47.733Z,34.92
2022-12-02T10:51:19.695Z,17.17
2022-12-02T10:56:18.961Z,31.02
2022-12-02T10:58:45.726Z,33.90
2022-12-02T11:01:13.380Z,30.40
2022-12-02T11:03:40.641Z,38.13
2022-12-02T11:06:17.246Z,31.20
2022-12-02T11:08:44.219Z,32.03
2022-12-02T11:11:24.916Z,34.88
2022-12-02T11:13:57.052Z,36.72
2022-12-02T11:16:29.413Z,39.22
2022-12-02T11:19:20.761Z,32.47
2022-12-02T11:21:47.450Z,42.40
2022-12-02T11:24:22.966Z,39.13
2022-12-02T11:27:04.103Z,36.90
2022-12-02T11:29:33.156Z,39.97
2022-12-02T11:32:02.838Z,45.92
2022-12-02T11:37:45.534Z,42.10
2022-12-02T11:40:13.137Z,40.03
2022-12-02T11:42:41.018Z,40.33
2022-12-02T11:45:16.796Z,38.20
2022-12-02T11:47:44.674Z,35.95
2022-12-02T11:50:17.068Z,49.75
2022-12-02T11:53:03.031Z,45.97
2022-12-02T11:55:41.062Z,48.40
2022-12-02T11:58:35.057Z,41.58
2022-12-02T12:01:15.112Z,36.17
2022-12-02T12:03:43.753Z,39.03
2022-12-02T12:06:12.942Z,50.60
2022-12-02T12:08:44.906Z,53.45
2022-12-02T12:13:59.757Z,53.22
2022-12-02T12:16:27.222Z,42.22
2022-12-02T12:18:54.185Z,48.45
2022-12-02T12:21:33.174Z,42.50
2022-12-02T12:24:18.358Z,43.17
2022-12-02T12:26:54.025Z,48.25
2022-12-02T12:29:22.826Z,43.40
2022-12-02T12:31:49.563Z,43.00
2022-12-02T12:34:16.646Z,46.47
2022-12-02T12:36:44.415Z,46.53
2022-12-02T12:39:11.618Z,47.63
2022-12-02T12:44:30.205Z,42.30
2022-12-02T12:46:59.551Z,31.75
2022-12-02T12:49:26.196Z,44.97
2022-12-02T12:51:52.839Z,30.48
2022-12-02T12:54:19.447Z,45.38
2022-12-02T12:56:46.051Z,25.88
2022-12-02T12:59:12.595Z,46.03
2022-12-02T13:01:39.261Z,44.15
2022-12-02T13:04:06.015Z,44.40
2022-12-02T13:06:36.173Z,42.58
2022-12-02T13:09:06.107Z,42.70
2022-12-02T13:11:32.698Z,44.35
2022-12-02T13:13:59.323Z,46.42
2022-12-02T13:16:25.929Z,38.88
2022-12-02T13:18:52.597Z,41.40
2022-12-02T13:21:19.251Z,39.53
2022-12-02T13:23:45.870Z,35.72
2022-12-02T13:26:15.250Z,36.72
2022-12-02T13:28:42.374Z,38.55
2022-12-02T13:31:09.086Z,34.90
2022-12-02T13:33:35.739Z,33.58
2022-12-02T13:36:02.305Z,36.78
2022-12-02T13:38:28.872Z,32.40
2022-12-02T13:40:55.418Z,41.95
2022-12-02T13:43:22.030Z,30.70
2022-12-02T13:45:48.708Z,28.55
2022-12-02T13:48:15.414Z,31.77
2022-12-02T13:50:42.024Z,27.08
2022-12-02T13:53:08.639Z,34.83
2022-12-02T13:55:35.300Z,29.52
2022-12-02T13:58:01.887Z,30.17
2022-12-02T14:00:28.612Z,27.42
2022-12-02T14:02:55.301Z,25.95
2022-12-02T14:05:21.964Z,22.35
2022-12-02T14:07:48.563Z,25.75
2022-12-02T14:10:15.314Z,24.88
2022-12-02T14:12:41.884Z,22.17
2022-12-02T14:15:08.974Z,22.50
2022-12-02T14:17:35.697Z,22.17
2022-12-02T14:20:02.457Z,20.35
2022-12-02T14:22:29.195Z,17.35
2022-12-02T14:24:56.535Z,28.98
2022-12-02T14:27:23.199Z,25.17
2022-12-02T14:29:49.834Z,23.77
2022-12-02T14:32:16.501Z,25.00
2022-12-02T14:34:43.141Z,23.80
2022-12-02T14:37:14.577Z,23.95
2022-12-02T14:42:08.851Z,19.80
2022-12-02T14:44:35.755Z,17.55
2022-12-02T14:47:02.396Z,17.90
2022-12-02T14:49:44.468Z,24.40
2022-12-02T14:52:11.629Z,23.83
2022-12-02T14:54:38.300Z,21.98
2022-12-02T14:57:05.652Z,20.60
2022-12-02T14:59:32.242Z,25.60
2022-12-02T15:01:58.947Z,27.70
2022-12-02T15:04:28.537Z,23.95
2022-12-02T15:06:55.298Z,29.85
2022-12-02T15:09:21.882Z,29.58
2022-12-02T15:11:48.601Z,32.53
2022-12-02T15:14:15.149Z,31.95
2022-12-02T15:16:41.934Z,32.13
2022-12-02T15:19:08.614Z,37.78
2022-12-02T15:21:35.185Z,36.38
2022-12-02T15:24:01.843Z,28.02
2022-12-02T15:26:28.614Z,32.17
2022-12-02T15:28:55.162Z,36.55
2022-12-02T15:31:22.356Z,35.33
2022-12-02T15:33:48.961Z,37.35
2022-12-02T15:36:16.287Z,37.88
2022-12-02T15:38:42.931Z,36.47
2022-12-02T15:41:09.848Z,42.17
2022-12-02T15:43:36.444Z,42.85
2022-12-02T15:46:03.065Z,45.72
2022-12-02T15:48:29.897Z,48.83
2022-12-02T15:50:56.464Z,46.03
2022-12-02T15:53:24.179Z,46.35
2022-12-02T15:55:51.858Z,46.65
2022-12-02T15:58:18.838Z,49.63
2022-12-02T16:00:45.606Z,49.35
2022-12-02T16:03:12.419Z,43.58
2022-12-02T16:05:39.017Z,55.03
2022-12-02T16:08:05.883Z,47.22
2022-12-02T16:10:32.633Z,58.95
2022-12-02T16:12:59.178Z,37.88
2022-12-02T16:15:25.795Z,46.45
2022-12-02T16:17:52.375Z,52.65
2022-12-02T16:20:18.929Z,57.10
2022-12-02T16:22:45.515Z,59.42
2022-12-02T16:25:12.121Z,42.90
2022-12-02T16:27:38.799Z,55.55
2022-12-02T16:30:06.035Z,58.67
2022-12-02T16:32:32.873Z,54.92
2022-12-02T16:34:59.485Z,53.60
2022-12-02T16:37:26.072Z,60.72
2022-12-02T16:39:52.729Z,38.45
2022-12-02T16:42:19.294Z,47.38
2022-12-02T16:44:47.588Z,63.10
2022-12-02T16:47:17.357Z,61.28
2022-12-02T16:49:44.141Z,63.88
2022-12-02T16:52:10.808Z,59.03
2022-12-02T16:54:37.535Z,56.28
2022-12-02T16:57:04.627Z,42.10
2022-12-02T16:59:31.443Z,61.88
2022-12-02T17:01:58.221Z,45.67
2022-12-02T17:04:25.103Z,41.20
2022-12-02T17:06:51.680Z,46.83
2022-12-02T17:09:18.310Z,58.80
2022-12-02T17:11:44.964Z,63.35
2022-12-02T17:14:12.635Z,56.70
2022-12-02T17:16:39.254Z,59.35
2022-12-02T17:19:05.919Z,60.10
2022-12-02T17:21:32.589Z,52.05
2022-12-02T17:23:59.150Z,42.70
2022-12-02T17:26:25.753Z,41.75
2022-12-02T17:28:52.306Z,52.58
2022-12-02T17:31:18.940Z,43.63
2022-12-02T17:33:45.565Z,50.88
2022-12-02T17:36:12.437Z,48.45
2022-12-02T17:38:55.595Z,49.80
2022-12-02T17:41:24.583Z,56.17
2022-12-02T17:43:51.364Z,49.67
2022-12-02T17:46:18.741Z,51.95
2022-12-02T17:48:45.838Z,52.85
2022-12-02T17:51:13.793Z,44.13
2022-12-02T17:53:41.187Z,42.50
2022-12-02T17:56:09.167Z,51.95
2022-12-02T17:58:36.715Z,47.38
2022-12-02T18:01:09.552Z,46.00
2022-12-02T18:03:38.837Z,38.33
2022-12-02T18:06:06.333Z,43.17
2022-12-02T18:08:33.212Z,44.00
2022-12-02T18:10:59.809Z,46.28
2022-12-02T18:13:26.438Z,48.97
2022-12-02T18:15:53.087Z,42.15
2022-12-02T18:18:19.733Z,41.80
2022-12-02T18:20:46.299Z,47.75
2022-12-02T18:23:13.052Z,34.55
2022-12-02T18:25:39.682Z,47.55
2022-12-02T18:28:06.331Z,39.75
2022-12-02T18:30:32.973Z,33.33
2022-12-02T18:32:59.814Z,85.70
2022-12-02T18:35:27.975Z,53.90
2022-12-02T18:37:54.800Z,51.17
2022-12-02T18:40:21.677Z,40.67
2022-12-02T18:42:48.307Z,42.75
2022-12-02T18:45:15.191Z,42.47
2022-12-02T18:47:41.922Z,38.92
2022-12-02T18:50:11.100Z,40.83
2022-12-02T18:52:37.794Z,36.05
2022-12-02T18:55:05.126Z,39.08
2022-12-02T18:57:31.774Z,42.40
2022-12-02T18:59:58.582Z,27.25
2022-12-02T19:02:25.292Z,36.95
2022-12-02T19:04:52.318Z,41.00
2022-12-02T19:07:19.528Z,31.30
2022-12-02T19:09:51.520Z,43.15
2022-12-02T19:12:19.994Z,35.88
2022-12-02T19:14:46.626Z,40.25
2022-12-02T19:17:13.172Z,37.92
2022-12-02T19:19:39.863Z,41.63
2022-12-02T19:22:06.625Z,39.28
2022-12-02T19:24:33.267Z,42.63
2022-12-02T19:26:59.836Z,46.03
2022-12-02T19:29:26.454Z,46.65
2022-12-02T19:31:53.258Z,43.58
2022-12-02T19:34:20.243Z,39.42
2022-12-02T19:36:46.853Z,38.28
2022-12-02T19:39:14.399Z,39.70
2022-12-02T19:41:41.585Z,35.53
2022-12-02T19:44:08.374Z,39.47
2022-12-02T19:46:35.324Z,39.13
2022-12-02T19:49:01.983Z,37.47
2022-12-02T19:51:28.609Z,31.88
2022-12-02T19:53:55.222Z,33.38
2022-12-02T19:56:21.811Z,38.50
2022-12-02T19:58:48.417Z,39.75
2022-12-02T20:01:15.045Z,39.60
2022-12-02T20:03:41.735Z,41.20
2022-12-02T20:06:08.600Z,32.97
2022-12-02T20:08:35.258Z,39.40
2022-12-02T20:11:02.012Z,45.60
2022-12-02T20:13:28.633Z,55.17
2022-12-02T20:15:58.452Z,38.03
2022-12-02T20:18:25.625Z,62.55
2022-12-02T20:20:52.206Z,58.13
2022-12-02T20:23:18.801Z,35.40
2022-12-02T20:25:45.543Z,33.78
2022-12-02T20:28:12.179Z,27.55
2022-12-02T20:30:38.754Z,27.13
2022-12-02T20:33:05.414Z,32.30
2022-12-02T20:35:32.075Z,30.70
2022-12-02T20:38:00.684Z,29.88
2022-12-02T20:40:27.966Z,27.77
2022-12-02T20:42:54.573Z,26.35
2022-12-02T20:45:22.081Z,31.30
2022-12-02T20:47:48.686Z,30.48
2022-12-02T20:50:15.378Z,29.15
2022-12-02T20:52:42.020Z,21.27
2022-12-02T20:55:09.363Z,25.55
2022-12-02T20:57:35.958Z,24.52
2022-12-02T21:00:02.659Z,26.30
2022-12-02T21:02:29.491Z,23.88
2022-12-02T21:04:56.131Z,26.92
2022-12-02T21:07:22.748Z,26.95
2022-12-02T21:09:49.423Z,27.40
2022-12-02T21:12:16.090Z,22.70
2022-12-02T21:14:42.735Z,26.48
2022-12-02T21:17:09.298Z,31.52
2022-12-02T21:19:35.914Z,15.95
2022-12-02T21:22:02.525Z,27.38
2022-12-02T21:24:29.247Z,32.63
2022-12-02T21:26:55.870Z,26.58
2022-12-02T21:29:22.537Z,31.58
2022-12-02T21:31:49.141Z,30.90
2022-12-02T21:34:15.844Z,30.40
2022-12-02T21:36:42.422Z,28.50
2022-12-02T21:39:09.646Z,26.50
2022-12-02T21:41:36.332Z,31.02
2022-12-02T21:44:02.981Z,29.08
2022-12-02T21:46:30.856Z,28.05
2022-12-02T21:48:57.504Z,27.35
2022-12-02T21:51:24.112Z,25.20
2022-12-02T21:53:50.711Z,25.63
2022-12-02T21:56:17.434Z,24.60
2022-12-02T21:58:44.040Z,25.10
2022-12-02T22:01:29.212Z,27.20
2022-12-02T22:03:55.942Z,24.85
2022-12-02T22:06:22.581Z,23.17
2022-12-02T22:08:49.202Z,25.73
2022-12-02T22:11:15.840Z,26.33
2022-12-02T22:13:42.463Z,26.60
2022-12-02T22:16:09.217Z,24.88
2022-12-02T22:18:35.894Z,19.92
2022-12-02T22:21:02.749Z,24.40
2022-12-02T22:23:29.358Z,23.58
2022-12-02T22:25:56.061Z,25.77
2022-12-02T22:28:22.702Z,24.48
2022-12-02T22:30:49.363Z,21.38
2022-12-02T22:33:16.003Z,24.15
2022-12-02T22:35:42.683Z,21.88
2022-12-02T22:38:09.361Z,24.02
2022-12-02T22:40:35.984Z,25.75
2022-12-02T22:43:02.612Z,23.02
2022-12-02T22:45:29.329Z,27.58
2022-12-02T22:47:55.932Z,28.25
2022-12-02T22:50:22.627Z,22.05
2022-12-02T22:52:49.245Z,26.25
2022-12-02T22:55:15.895Z,23.25
2022-12-02T22:57:42.440Z,24.13
2022-12-02T23:00:10.848Z,25.75
2022-12-02T23:02:37.499Z,23.55
2022-12-02T23:05:04.493Z,28.08
2022-12-02T23:07:31.189Z,19.73
2022-12-02T23:09:57.786Z,29.92
2022-12-02T23:12:25.631Z,24.50
2022-12-02T23:15:04.709Z,21.95
2022-12-02T23:17:39.448Z,27.15
2022-12-02T23:20:06.864Z,24.75
2022-12-02T23:22:36.083Z,28.40
2022-12-02T23:25:03.872Z,26.00
2022-12-02T23:27:30.474Z,28.52
2022-12-02T23:29:57.102Z,24.52
2022-12-02T23:32:23.734Z,27.00
2022-12-02T23:34:50.516Z,26.95
2022-12-02T23:37:17.371Z,28.50
2022-12-02T23:39:43.962Z,28.00
2022-12-02T23:42:10.574Z,28.73
2022-12-02T23:44:37.175Z,29.17
2022-12-02T23:47:04.024Z,27.90
2022-12-02T23:49:30.647Z,28.85
2022-12-02T23:51:57.361Z,26.73
2022-12-02T23:54:24.019Z,25.00
2022-12-02T23:56:50.625Z,24.10
2022-12-02T23:59:17.235Z,30.73
